createdAt,value
2023-09-06T00:00:41.490Z,20.96
2023-09-06T00:01:41.992Z,20.83
2023-09-06T00:02:41.286Z,20.86
2023-09-06T00:03:41.552Z,20.81
2023-09-06T00:04:41.313Z,20.86
2023-09-06T00:05:41.136Z,20.83
2023-09-06T00:06:41.137Z,20.91
2023-09-06T00:07:41.036Z,20.86
2023-09-06T00:08:41.021Z,20.81
2023-09-06T00:09:40.999Z,20.76
2023-09-06T00:10:40.898Z,20.79
2023-09-06T00:11:40.858Z,20.72
2023-09-06T00:12:40.794Z,20.76
2023-09-06T00:13:40.736Z,20.69
2023-09-06T00:14:40.713Z,20.77
2023-09-06T00:15:40.870Z,20.68
2023-09-06T00:16:40.738Z,20.76
2023-09-06T00:17:40.639Z,20.69
2023-09-06T00:18:40.544Z,20.66
2023-09-06T00:19:40.444Z,20.66
2023-09-06T00:20:40.383Z,20.66
2023-09-06T00:21:40.364Z,20.64
2023-09-06T00:22:40.281Z,20.62
2023-09-06T00:23:40.240Z,20.64
2023-09-06T00:24:40.229Z,20.64
2023-09-06T00:25:40.136Z,20.65
2023-09-06T00:26:40.084Z,20.62
2023-09-06T00:27:40.075Z,20.59
2023-09-06T00:28:40.067Z,20.62
2023-09-06T00:29:39.934Z,20.50
2023-09-06T00:30:39.984Z,20.56
2023-09-06T00:31:39.901Z,20.51
2023-09-06T00:32:39.842Z,20.54
2023-09-06T00:33:39.773Z,20.50
2023-09-06T00:34:39.684Z,20.53
2023-09-06T00:35:39.637Z,20.50
2023-09-06T00:36:39.609Z,20.46
2023-09-06T00:37:39.531Z,20.49
2023-09-06T00:38:39.480Z,20.49
2023-09-06T00:39:39.469Z,20.43
2023-09-06T00:40:39.377Z,20.47
2023-09-06T00:41:39.330Z,20.51
2023-09-06T00:42:39.307Z,20.47
2023-09-06T00:43:39.230Z,20.43
2023-09-06T00:44:39.178Z,20.41
2023-09-06T00:45:39.157Z,20.43
2023-09-06T00:46:39.186Z,20.41
2023-09-06T00:47:39.107Z,20.38
2023-09-06T00:48:39.032Z,20.38
2023-09-06T00:49:38.929Z,20.27
2023-09-06T00:50:38.878Z,20.28
2023-09-06T00:51:38.861Z,20.35
2023-09-06T00:52:38.776Z,20.27
2023-09-06T00:53:38.724Z,20.41
2023-09-06T00:54:38.742Z,20.28
2023-09-06T00:55:38.828Z,20.21
2023-09-06T00:56:38.572Z,20.20
2023-09-06T00:57:38.545Z,20.31
2023-09-06T00:58:38.475Z,20.30
2023-09-06T00:59:38.429Z,20.28
2023-09-06T01:00:38.547Z,20.28
2023-09-06T01:01:38.496Z,20.16
2023-09-06T01:02:38.363Z,20.24
2023-09-06T01:03:38.378Z,20.13
2023-09-06T01:04:38.273Z,20.23
2023-09-06T01:05:38.121Z,20.13
2023-09-06T01:06:38.136Z,20.23
2023-09-06T01:07:38.031Z,20.08
2023-09-06T01:08:37.973Z,20.20
2023-09-06T01:09:37.960Z,20.18
2023-09-06T01:10:37.880Z,20.06
2023-09-06T01:11:37.824Z,20.16
2023-09-06T01:12:37.812Z,20.16
2023-09-06T01:13:37.720Z,20.12
2023-09-06T01:14:37.674Z,20.06
2023-09-06T01:15:37.697Z,20.10
2023-09-06T01:16:37.620Z,20.12
2023-09-06T01:17:37.550Z,20.10
2023-09-06T01:18:37.483Z,20.03
2023-09-06T01:19:37.416Z,20.10
2023-09-06T01:20:37.444Z,20.15
2023-09-06T01:21:37.340Z,20.05
2023-09-06T01:22:37.268Z,20.12
2023-09-06T01:23:37.220Z,20.08
2023-09-06T01:24:37.159Z,20.08
2023-09-06T01:25:37.154Z,20.03
2023-09-06T01:26:37.059Z,20.03
2023-09-06T01:27:37.042Z,20.06
2023-09-06T01:28:36.954Z,20.00
2023-09-06T01:29:36.908Z,20.06
2023-09-06T01:30:36.894Z,19.97
2023-09-06T01:31:36.909Z,20.00
2023-09-06T01:32:36.790Z,19.98
2023-09-06T01:33:36.738Z,19.95
2023-09-06T01:34:36.657Z,19.91
2023-09-06T01:35:36.606Z,20.03
2023-09-06T01:36:36.972Z,19.93
2023-09-06T01:37:36.505Z,19.94
2023-09-06T01:38:36.460Z,19.91
2023-09-06T01:39:36.428Z,19.91
2023-09-06T01:40:36.349Z,19.97
2023-09-06T01:41:36.301Z,19.88
2023-09-06T01:42:36.257Z,19.91
2023-09-06T01:43:36.250Z,19.90
2023-09-06T01:44:36.204Z,19.94
2023-09-06T01:45:36.111Z,19.90
2023-09-06T01:46:36.147Z,19.91
2023-09-06T01:47:36.020Z,19.84
2023-09-06T01:48:35.962Z,19.83
2023-09-06T01:49:35.904Z,19.88
2023-09-06T01:50:35.851Z,19.83
2023-09-06T01:51:35.855Z,19.80
2023-09-06T01:52:35.784Z,19.76
2023-09-06T01:53:35.698Z,19.78
2023-09-06T01:54:35.672Z,19.76
2023-09-06T01:55:35.601Z,19.79
2023-09-06T01:56:35.544Z,19.70
2023-09-06T01:57:35.500Z,19.75
2023-09-06T01:58:35.450Z,19.75
2023-09-06T01:59:35.390Z,19.79
2023-09-06T02:00:35.367Z,19.76
2023-09-06T02:01:36.011Z,19.73
2023-09-06T02:02:35.303Z,19.79
2023-09-06T02:03:35.342Z,19.73
2023-09-06T02:04:35.174Z,19.73
2023-09-06T02:05:35.082Z,19.70
2023-09-06T02:06:35.034Z,19.72
2023-09-06T02:07:34.980Z,19.66
2023-09-06T02:08:34.941Z,19.68
2023-09-06T02:09:34.883Z,19.70
2023-09-06T02:10:34.828Z,19.70
2023-09-06T02:11:34.779Z,19.68
2023-09-06T02:12:34.723Z,19.66
2023-09-06T02:13:34.688Z,19.65
2023-09-06T02:14:34.624Z,19.66
2023-09-06T02:15:34.577Z,19.54
2023-09-06T02:16:34.557Z,19.61
2023-09-06T02:17:34.491Z,19.57
2023-09-06T02:18:34.425Z,19.53
2023-09-06T02:19:34.376Z,19.48
2023-09-06T02:20:34.321Z,19.53
2023-09-06T02:21:34.271Z,19.53
2023-09-06T02:22:34.225Z,19.51
2023-09-06T02:23:34.168Z,19.53
2023-09-06T02:24:34.207Z,19.51
2023-09-06T02:25:34.069Z,19.47
2023-09-06T02:26:34.017Z,19.48
2023-09-06T02:27:33.964Z,19.47
2023-09-06T02:28:33.964Z,19.42
2023-09-06T02:29:33.868Z,19.48
2023-09-06T02:30:33.819Z,19.50
2023-09-06T02:31:33.839Z,19.46
2023-09-06T02:32:33.835Z,19.36
2023-09-06T02:33:33.678Z,19.48
2023-09-06T02:34:33.609Z,19.39
2023-09-06T02:35:33.557Z,19.38
2023-09-06T02:36:33.503Z,19.33
2023-09-06T02:37:33.455Z,19.43
2023-09-06T02:38:33.400Z,19.36
2023-09-06T02:39:33.358Z,19.36
2023-09-06T02:40:33.366Z,19.35
2023-09-06T02:41:33.255Z,19.32
2023-09-06T02:42:33.198Z,19.35
2023-09-06T02:43:33.214Z,19.31
2023-09-06T02:44:33.109Z,19.33
2023-09-06T02:45:33.075Z,19.38
2023-09-06T02:46:33.020Z,19.35
2023-09-06T02:47:32.968Z,19.36
2023-09-06T02:48:32.893Z,19.38
2023-09-06T02:49:32.847Z,19.32
2023-09-06T02:50:32.794Z,19.24
2023-09-06T02:51:32.750Z,19.33
2023-09-06T02:52:32.694Z,19.31
2023-09-06T02:53:32.645Z,19.32
2023-09-06T02:54:32.597Z,19.38
2023-09-06T02:55:32.538Z,19.33
2023-09-06T02:56:32.492Z,19.32
2023-09-06T02:57:32.453Z,19.38
2023-09-06T02:58:32.634Z,19.23
2023-09-06T02:59:32.336Z,19.25
2023-09-06T03:00:32.283Z,19.39
2023-09-06T03:01:32.349Z,19.25
2023-09-06T03:02:32.222Z,19.24
2023-09-06T03:03:32.405Z,19.23
2023-09-06T03:04:32.145Z,19.24
2023-09-06T03:05:32.021Z,19.28
2023-09-06T03:06:32.002Z,19.29
2023-09-06T03:07:31.921Z,19.24
2023-09-06T03:08:32.263Z,19.24
2023-09-06T03:09:31.873Z,19.21
2023-09-06T03:10:31.765Z,19.18
2023-09-06T03:11:31.721Z,19.15
2023-09-06T03:12:31.753Z,19.11
2023-09-06T03:13:31.638Z,19.17
2023-09-06T03:14:31.579Z,19.20
2023-09-06T03:15:32.428Z,19.17
2023-09-06T03:16:31.612Z,19.23
2023-09-06T03:17:31.423Z,19.13
2023-09-06T03:18:31.754Z,19.18
2023-09-06T03:19:31.328Z,19.18
2023-09-06T03:20:31.258Z,19.14
2023-09-06T03:21:31.206Z,19.13
2023-09-06T03:22:31.182Z,19.14
2023-09-06T03:23:31.101Z,19.02
2023-09-06T03:24:31.057Z,19.11
2023-09-06T03:25:31.039Z,19.06
2023-09-06T03:26:30.945Z,19.02
2023-09-06T03:27:30.921Z,19.01
2023-09-06T03:28:31.164Z,18.92
2023-09-06T03:29:30.792Z,19.02
2023-09-06T03:30:30.749Z,19.13
2023-09-06T03:31:30.840Z,19.05
2023-09-06T03:32:30.755Z,19.06
2023-09-06T03:33:30.888Z,19.06
2023-09-06T03:34:30.537Z,18.98
2023-09-06T03:35:30.502Z,18.90
2023-09-06T03:36:30.431Z,18.97
2023-09-06T03:37:30.378Z,18.97
2023-09-06T03:38:30.615Z,18.99
2023-09-06T03:39:30.666Z,18.95
2023-09-06T03:40:30.225Z,18.98
2023-09-06T03:41:30.173Z,18.94
2023-09-06T03:42:30.126Z,18.94
2023-09-06T03:43:30.077Z,18.94
2023-09-06T03:44:30.023Z,18.94
2023-09-06T03:45:29.965Z,18.98
2023-09-06T03:46:29.936Z,18.92
2023-09-06T03:47:30.028Z,18.80
2023-09-06T03:48:30.373Z,18.91
2023-09-06T03:49:31.067Z,18.90
2023-09-06T03:50:29.719Z,18.84
2023-09-06T03:51:29.674Z,18.84
2023-09-06T03:52:29.609Z,18.79
2023-09-06T03:53:29.557Z,18.79
2023-09-06T03:54:29.507Z,18.76
2023-09-06T03:55:29.456Z,18.74
2023-09-06T03:56:29.406Z,18.79
2023-09-06T03:57:29.363Z,18.80
2023-09-06T03:58:30.507Z,18.72
2023-09-06T03:59:29.250Z,18.77
2023-09-06T04:00:29.229Z,18.72
2023-09-06T04:01:29.230Z,18.70
2023-09-06T04:02:29.374Z,18.65
2023-09-06T04:03:29.219Z,18.74
2023-09-06T04:04:29.056Z,18.70
2023-09-06T04:05:28.985Z,18.72
2023-09-06T04:06:28.892Z,18.73
2023-09-06T04:07:28.839Z,18.62
2023-09-06T04:08:29.137Z,18.62
2023-09-06T04:09:28.741Z,18.61
2023-09-06T04:10:28.681Z,18.64
2023-09-06T04:11:28.627Z,18.61
2023-09-06T04:12:28.647Z,18.65
2023-09-06T04:13:28.524Z,18.62
2023-09-06T04:14:28.505Z,18.58
2023-09-06T04:15:28.425Z,18.58
2023-09-06T04:16:28.427Z,18.59
2023-09-06T04:17:28.346Z,18.64
2023-09-06T04:18:28.606Z,18.58
2023-09-06T04:19:28.224Z,18.61
2023-09-06T04:20:28.184Z,18.50
2023-09-06T04:21:28.120Z,18.58
2023-09-06T04:22:28.066Z,18.61
2023-09-06T04:23:28.074Z,18.58
2023-09-06T04:24:27.964Z,18.61
2023-09-06T04:25:27.915Z,18.50
2023-09-06T04:26:27.894Z,18.52
2023-09-06T04:27:27.808Z,18.52
2023-09-06T04:28:28.089Z,18.54
2023-09-06T04:29:27.735Z,18.54
2023-09-06T04:30:27.653Z,18.59
2023-09-06T04:31:27.615Z,18.57
2023-09-06T04:32:27.561Z,18.57
2023-09-06T04:33:27.506Z,18.52
2023-09-06T04:34:27.449Z,18.55
2023-09-06T04:35:27.416Z,18.44
2023-09-06T04:36:27.341Z,18.55
2023-09-06T04:37:27.290Z,18.54
2023-09-06T04:38:27.659Z,18.43
2023-09-06T04:39:27.186Z,18.52
2023-09-06T04:40:27.139Z,18.52
2023-09-06T04:41:27.154Z,18.49
2023-09-06T04:42:27.035Z,18.43
2023-09-06T04:43:26.981Z,18.47
2023-09-06T04:44:26.983Z,18.50
2023-09-06T04:45:26.881Z,18.49
2023-09-06T04:46:26.851Z,18.44
2023-09-06T04:47:26.870Z,18.47
2023-09-06T04:48:26.925Z,18.43
2023-09-06T04:49:26.667Z,18.43
2023-09-06T04:50:26.653Z,18.46
2023-09-06T04:51:26.563Z,18.47
2023-09-06T04:52:26.512Z,18.43
2023-09-06T04:53:26.478Z,18.43
2023-09-06T04:54:26.466Z,18.43
2023-09-06T04:55:26.362Z,18.37
2023-09-06T04:56:26.310Z,18.40
2023-09-06T04:57:26.253Z,18.39
2023-09-06T04:58:26.327Z,18.43
2023-09-06T04:59:26.170Z,18.37
2023-09-06T05:00:26.133Z,18.33
2023-09-06T05:01:26.047Z,18.39
2023-09-06T05:02:26.018Z,18.36
2023-09-06T05:03:26.066Z,18.33
2023-09-06T05:04:26.107Z,18.34
2023-09-06T05:05:26.490Z,18.31
2023-09-06T05:06:25.791Z,18.34
2023-09-06T05:07:25.739Z,18.22
2023-09-06T05:08:25.780Z,18.36
2023-09-06T05:09:25.634Z,18.33
2023-09-06T05:10:25.580Z,18.36
2023-09-06T05:11:25.538Z,18.21
2023-09-06T05:12:25.480Z,18.27
2023-09-06T05:13:25.427Z,18.31
2023-09-06T05:14:25.407Z,18.27
2023-09-06T05:15:25.327Z,18.29
2023-09-06T05:16:25.310Z,18.25
2023-09-06T05:17:25.219Z,18.25
2023-09-06T05:18:25.165Z,18.22
2023-09-06T05:19:25.117Z,18.36
2023-09-06T05:20:25.074Z,18.24
2023-09-06T05:21:25.011Z,18.25
2023-09-06T05:22:24.965Z,18.24
2023-09-06T05:23:24.950Z,18.24
2023-09-06T05:24:24.854Z,18.33
2023-09-06T05:25:24.810Z,18.27
2023-09-06T05:26:24.754Z,18.24
2023-09-06T05:27:24.698Z,18.21
2023-09-06T05:28:24.757Z,18.24
2023-09-06T05:29:24.608Z,18.28
2023-09-06T05:30:24.544Z,18.25
2023-09-06T05:31:24.552Z,18.19
2023-09-06T05:32:24.467Z,18.24
2023-09-06T05:33:24.388Z,18.18
2023-09-06T05:34:24.345Z,18.33
2023-09-06T05:35:24.285Z,18.27
2023-09-06T05:36:24.242Z,18.21
2023-09-06T05:37:24.207Z,18.18
2023-09-06T05:38:24.129Z,18.24
2023-09-06T05:39:24.074Z,18.24
2023-09-06T05:40:24.211Z,18.22
2023-09-06T05:41:23.969Z,18.27
2023-09-06T05:42:23.931Z,18.24
2023-09-06T05:43:23.867Z,18.25
2023-09-06T05:44:23.819Z,18.24
2023-09-06T05:45:23.775Z,18.22
2023-09-06T05:46:33.118Z,18.25
2023-09-06T05:47:23.713Z,18.29
2023-09-06T05:48:23.681Z,18.25
2023-09-06T05:49:23.577Z,18.24
2023-09-06T05:50:23.505Z,18.19
2023-09-06T05:51:23.507Z,18.21
2023-09-06T05:52:23.415Z,18.22
2023-09-06T05:53:23.380Z,18.24
2023-09-06T05:54:23.300Z,18.22
2023-09-06T05:55:23.295Z,18.27
2023-09-06T05:56:23.197Z,18.24
2023-09-06T05:57:23.173Z,18.24
2023-09-06T05:58:23.091Z,18.28
2023-09-06T05:59:23.073Z,18.25
2023-09-06T06:00:22.980Z,18.36
2023-09-06T06:01:22.995Z,18.24
2023-09-06T06:02:23.021Z,18.24
2023-09-06T06:03:22.967Z,18.24
2023-09-06T06:04:22.843Z,18.25
2023-09-06T06:05:22.753Z,18.25
2023-09-06T06:06:22.675Z,18.25
2023-09-06T06:07:22.617Z,18.29
2023-09-06T06:08:22.585Z,18.22
2023-09-06T06:09:22.519Z,18.27
2023-09-06T06:10:22.465Z,18.24
2023-09-06T06:11:23.382Z,18.21
2023-09-06T06:12:22.369Z,18.31
2023-09-06T06:13:22.307Z,18.33
2023-09-06T06:14:22.280Z,18.33
2023-09-06T06:15:22.206Z,18.19
2023-09-06T06:16:22.266Z,18.40
2023-09-06T06:17:22.134Z,18.25
2023-09-06T06:18:22.053Z,18.36
2023-09-06T06:19:22.004Z,18.34
2023-09-06T06:20:30.828Z,18.37
2023-09-06T06:21:21.914Z,18.33
2023-09-06T06:22:21.848Z,18.40
2023-09-06T06:23:21.797Z,18.36
2023-09-06T06:24:21.743Z,18.33
2023-09-06T06:25:21.691Z,18.37
2023-09-06T06:26:21.636Z,18.43
2023-09-06T06:27:21.685Z,18.39
2023-09-06T06:28:21.618Z,18.44
2023-09-06T06:29:21.542Z,18.39
2023-09-06T06:30:21.429Z,18.46
2023-09-06T06:31:21.442Z,18.47
2023-09-06T06:32:21.479Z,18.44
2023-09-06T06:33:21.278Z,18.43
2023-09-06T06:34:21.234Z,18.43
2023-09-06T06:35:21.179Z,18.47
2023-09-06T06:36:21.121Z,18.43
2023-09-06T06:37:21.059Z,18.47
2023-09-06T06:38:21.034Z,18.46
2023-09-06T06:39:20.965Z,18.43
2023-09-06T06:40:20.920Z,18.57
2023-09-06T06:41:20.904Z,18.55
2023-09-06T06:42:20.805Z,18.59
2023-09-06T06:43:20.749Z,18.52
2023-09-06T06:44:20.743Z,18.49
2023-09-06T06:45:20.646Z,18.52
2023-09-06T06:46:20.596Z,18.59
2023-09-06T06:47:20.589Z,18.59
2023-09-06T06:48:20.487Z,18.54
2023-09-06T06:49:20.433Z,18.46
2023-09-06T06:50:21.677Z,18.57
2023-09-06T06:51:20.341Z,18.61
2023-09-06T06:52:20.294Z,18.52
2023-09-06T06:53:20.303Z,18.55
2023-09-06T06:54:20.188Z,18.58
2023-09-06T06:55:20.125Z,18.57
2023-09-06T06:56:20.144Z,18.57
2023-09-06T06:57:20.021Z,18.62
2023-09-06T06:58:19.975Z,18.58
2023-09-06T06:59:19.949Z,18.67
2023-09-06T07:00:19.871Z,18.61
2023-09-06T07:01:19.873Z,18.61
2023-09-06T07:02:19.805Z,18.74
2023-09-06T07:03:19.833Z,18.61
2023-09-06T07:04:19.667Z,18.68
2023-09-06T07:05:19.659Z,18.67
2023-09-06T07:06:19.551Z,18.67
2023-09-06T07:07:19.506Z,18.73
2023-09-06T07:08:19.480Z,18.74
2023-09-06T07:09:19.394Z,18.77
2023-09-06T07:10:19.344Z,18.73
2023-09-06T07:11:19.371Z,18.74
2023-09-06T07:12:19.252Z,18.77
2023-09-06T07:13:19.192Z,18.79
2023-09-06T07:14:19.215Z,18.77
2023-09-06T07:15:19.144Z,18.73
2023-09-06T07:16:19.166Z,18.79
2023-09-06T07:17:19.050Z,18.80
2023-09-06T07:18:18.965Z,18.83
2023-09-06T07:19:18.899Z,18.77
2023-09-06T07:20:18.862Z,18.86
2023-09-06T07:21:18.778Z,18.91
2023-09-06T07:22:18.727Z,18.86
2023-09-06T07:23:18.677Z,18.84
2023-09-06T07:24:18.648Z,18.92
2023-09-06T07:25:18.572Z,18.84
2023-09-06T07:26:18.590Z,18.87
2023-09-06T07:27:18.463Z,18.90
2023-09-06T07:28:18.435Z,18.95
2023-09-06T07:29:18.372Z,18.83
2023-09-06T07:30:18.306Z,18.94
2023-09-06T07:31:18.295Z,18.98
2023-09-06T07:32:18.205Z,18.95
2023-09-06T07:33:18.246Z,18.97
2023-09-06T07:34:18.153Z,19.05
2023-09-06T07:35:18.093Z,19.05
2023-09-06T07:36:17.998Z,19.01
2023-09-06T07:37:17.947Z,18.99
2023-09-06T07:38:17.936Z,19.08
2023-09-06T07:39:17.846Z,18.98
2023-09-06T07:40:17.813Z,19.08
2023-09-06T07:41:17.753Z,18.98
2023-09-06T07:42:17.684Z,19.01
2023-09-06T07:43:17.636Z,19.10
2023-09-06T07:44:17.663Z,19.05
2023-09-06T07:45:17.535Z,19.01
2023-09-06T07:46:17.525Z,19.14
2023-09-06T07:47:17.550Z,19.15
2023-09-06T07:48:17.450Z,19.20
2023-09-06T07:49:17.522Z,19.02
2023-09-06T07:50:17.330Z,19.05
2023-09-06T07:51:17.217Z,19.17
2023-09-06T07:52:17.162Z,19.01
2023-09-06T07:53:17.146Z,19.10
2023-09-06T07:54:17.065Z,19.18
2023-09-06T07:55:17.017Z,19.17
2023-09-06T07:56:17.035Z,19.21
2023-09-06T07:57:16.908Z,19.20
2023-09-06T07:58:16.865Z,19.24
2023-09-06T07:59:16.839Z,19.28
2023-09-06T08:00:16.768Z,19.24
2023-09-06T08:01:19.504Z,19.21
2023-09-06T08:02:16.654Z,19.24
2023-09-06T08:03:16.653Z,19.17
2023-09-06T08:04:16.624Z,19.25
2023-09-06T08:05:16.506Z,19.24
2023-09-06T08:06:16.649Z,19.28
2023-09-06T08:07:16.410Z,19.33
2023-09-06T08:08:16.337Z,19.38
2023-09-06T08:09:16.327Z,19.31
2023-09-06T08:10:16.240Z,19.33
2023-09-06T08:11:16.185Z,19.33
2023-09-06T08:12:16.146Z,19.31
2023-09-06T08:13:16.082Z,19.39
2023-09-06T08:14:16.032Z,19.38
2023-09-06T08:15:16.013Z,19.42
2023-09-06T08:16:16.076Z,19.36
2023-09-06T08:17:15.900Z,19.38
2023-09-06T08:18:15.971Z,19.36
2023-09-06T08:19:15.779Z,19.36
2023-09-06T08:20:15.749Z,19.38
2023-09-06T08:21:15.760Z,19.32
2023-09-06T08:22:15.622Z,19.46
2023-09-06T08:23:15.569Z,19.48
2023-09-06T08:24:15.577Z,19.48
2023-09-06T08:25:15.472Z,19.46
2023-09-06T08:26:15.413Z,19.48
2023-09-06T08:27:15.523Z,19.53
2023-09-06T08:28:15.312Z,19.50
2023-09-06T08:29:15.257Z,19.57
2023-09-06T08:30:15.357Z,19.48
2023-09-06T08:31:15.310Z,19.53
2023-09-06T08:32:15.226Z,19.54
2023-09-06T08:33:15.162Z,19.57
2023-09-06T08:34:14.996Z,19.57
2023-09-06T08:35:14.950Z,19.54
2023-09-06T08:36:14.910Z,19.60
2023-09-06T08:37:14.862Z,19.63
2023-09-06T08:38:14.789Z,19.65
2023-09-06T08:39:14.748Z,19.66
2023-09-06T08:40:14.695Z,19.68
2023-09-06T08:41:14.647Z,19.63
2023-09-06T08:42:14.627Z,19.68
2023-09-06T08:43:14.542Z,19.72
2023-09-06T08:44:14.488Z,19.69
2023-09-06T08:45:14.436Z,19.69
2023-09-06T08:46:14.390Z,19.79
2023-09-06T08:47:14.437Z,19.78
2023-09-06T08:48:14.343Z,19.83
2023-09-06T08:49:14.306Z,19.75
2023-09-06T08:50:14.181Z,19.76
2023-09-06T08:51:14.154Z,19.80
2023-09-06T08:52:14.078Z,19.78
2023-09-06T08:53:14.029Z,19.83
2023-09-06T08:54:14.012Z,19.90
2023-09-06T08:55:13.933Z,19.86
2023-09-06T08:56:13.876Z,19.84
2023-09-06T08:57:13.832Z,19.93
2023-09-06T08:58:13.786Z,19.93
2023-09-06T08:59:13.728Z,19.87
2023-09-06T09:00:13.666Z,19.94
2023-09-06T09:01:13.736Z,19.97
2023-09-06T09:02:13.572Z,19.91
2023-09-06T09:03:13.588Z,19.87
2023-09-06T09:04:13.600Z,19.93
2023-09-06T09:05:19.916Z,19.93
2023-09-06T09:06:13.358Z,20.00
2023-09-06T09:07:13.308Z,19.97
2023-09-06T09:08:13.257Z,19.94
2023-09-06T09:09:13.209Z,20.06
2023-09-06T09:10:13.198Z,20.03
2023-09-06T09:11:13.105Z,20.00
2023-09-06T09:12:13.055Z,20.02
2023-09-06T09:13:13.011Z,20.06
2023-09-06T09:14:12.950Z,20.05
2023-09-06T09:15:23.283Z,20.10
2023-09-06T09:16:12.957Z,20.15
2023-09-06T09:17:12.835Z,20.10
2023-09-06T09:18:12.797Z,20.03
2023-09-06T09:19:12.758Z,20.05
2023-09-06T09:20:12.655Z,20.16
2023-09-06T09:21:12.592Z,20.16
2023-09-06T09:22:12.541Z,20.16
2023-09-06T09:23:12.493Z,20.12
2023-09-06T09:24:12.437Z,20.20
2023-09-06T09:25:12.386Z,20.28
2023-09-06T09:26:12.331Z,20.24
2023-09-06T09:27:12.286Z,20.27
2023-09-06T09:28:13.363Z,20.28
2023-09-06T09:29:12.185Z,20.23
2023-09-06T09:30:12.132Z,20.30
2023-09-06T09:31:12.120Z,20.33
2023-09-06T09:32:12.027Z,20.39
2023-09-06T09:33:12.060Z,20.30
2023-09-06T09:34:11.927Z,20.27
2023-09-06T09:35:11.873Z,20.42
2023-09-06T09:36:11.932Z,20.33
2023-09-06T09:37:11.772Z,20.42
2023-09-06T09:38:11.726Z,20.43
2023-09-06T09:39:11.736Z,20.46
2023-09-06T09:40:11.619Z,20.38
2023-09-06T09:41:11.570Z,20.47
2023-09-06T09:42:11.608Z,20.46
2023-09-06T09:43:11.468Z,20.51
2023-09-06T09:44:11.413Z,20.50
2023-09-06T09:45:11.398Z,20.58
2023-09-06T09:46:11.490Z,20.56
2023-09-06T09:47:31.152Z,20.47
2023-09-06T09:48:11.245Z,20.54
2023-09-06T09:49:11.157Z,20.53
2023-09-06T09:50:11.114Z,20.58
2023-09-06T09:51:11.108Z,20.59
2023-09-06T09:52:11.031Z,20.62
2023-09-06T09:53:21.365Z,20.58
2023-09-06T09:54:10.912Z,20.56
2023-09-06T09:55:10.896Z,20.58
2023-09-06T09:56:10.799Z,20.64
2023-09-06T09:57:10.749Z,20.65
2023-09-06T09:58:10.701Z,20.64
2023-09-06T09:59:10.655Z,20.61
2023-09-06T10:00:10.777Z,20.74
2023-09-06T10:01:10.611Z,20.71
2023-09-06T10:02:10.597Z,20.68
2023-09-06T10:03:10.707Z,20.71
2023-09-06T10:04:10.538Z,20.76
2023-09-06T10:05:10.429Z,20.68
2023-09-06T10:06:10.293Z,20.87
2023-09-06T10:07:10.256Z,20.84
2023-09-06T10:08:10.226Z,20.80
2023-09-06T10:09:10.213Z,20.83
2023-09-06T10:10:10.092Z,20.84
2023-09-06T10:11:10.040Z,20.81
2023-09-06T10:12:09.998Z,20.79
2023-09-06T10:13:10.394Z,20.81
2023-09-06T10:14:09.889Z,20.96
2023-09-06T10:15:09.853Z,20.87
2023-09-06T10:16:09.852Z,20.81
2023-09-06T10:17:31.673Z,20.81
2023-09-06T10:18:09.716Z,20.79
2023-09-06T10:19:09.696Z,20.83
2023-09-06T10:20:09.588Z,20.89
2023-09-06T10:21:09.534Z,20.95
2023-09-06T10:22:09.493Z,20.99
2023-09-06T10:23:09.626Z,20.93
2023-09-06T10:24:09.398Z,20.99
2023-09-06T10:25:09.331Z,20.96
2023-09-06T10:26:09.280Z,20.99
2023-09-06T10:27:09.227Z,20.98
2023-09-06T10:28:09.516Z,21.14
2023-09-06T10:29:09.134Z,21.14
2023-09-06T10:30:09.075Z,21.02
2023-09-06T10:31:09.632Z,21.04
2023-09-06T10:32:08.978Z,21.11
2023-09-06T10:33:09.007Z,21.04
2023-09-06T10:34:08.875Z,21.06
2023-09-06T10:35:08.830Z,21.11
2023-09-06T10:36:08.914Z,21.11
2023-09-06T10:37:08.905Z,21.11
2023-09-06T10:38:08.672Z,21.19
2023-09-06T10:39:08.622Z,21.16
2023-09-06T10:40:08.621Z,21.23
2023-09-06T10:41:08.519Z,21.20
2023-09-06T10:42:08.469Z,21.19
2023-09-06T10:43:08.418Z,21.20
2023-09-06T10:44:29.363Z,21.21
2023-09-06T10:45:08.380Z,21.24
2023-09-06T10:46:08.370Z,21.29
2023-09-06T10:47:08.214Z,21.34
2023-09-06T10:48:08.201Z,21.29
2023-09-06T10:49:08.177Z,21.27
2023-09-06T10:50:08.062Z,21.29
2023-09-06T10:51:08.033Z,21.39
2023-09-06T10:52:07.975Z,21.41
2023-09-06T10:53:07.908Z,21.34
2023-09-06T10:54:07.864Z,21.45
2023-09-06T10:55:07.905Z,21.39
2023-09-06T10:56:07.780Z,21.42
2023-09-06T10:57:07.734Z,21.45
2023-09-06T10:58:07.835Z,21.46
2023-09-06T10:59:07.607Z,21.48
2023-09-06T11:00:07.569Z,21.51
2023-09-06T11:01:07.587Z,21.42
2023-09-06T11:02:07.586Z,21.63
2023-09-06T11:03:07.588Z,21.60
2023-09-06T11:04:07.416Z,21.54
2023-09-06T11:05:07.376Z,21.53
2023-09-06T11:06:07.276Z,21.59
2023-09-06T11:07:07.260Z,21.56
2023-09-06T11:08:09.028Z,21.66
2023-09-06T11:09:07.116Z,21.67
2023-09-06T11:10:07.069Z,21.66
2023-09-06T11:11:07.009Z,21.64
2023-09-06T11:12:06.965Z,21.67
2023-09-06T11:13:06.962Z,21.66
2023-09-06T11:14:06.856Z,21.67
2023-09-06T11:15:06.929Z,21.71
2023-09-06T11:16:06.923Z,21.71
2023-09-06T11:17:06.725Z,21.75
2023-09-06T11:18:06.707Z,21.81
2023-09-06T11:19:06.608Z,21.79
2023-09-06T11:20:06.555Z,21.76
2023-09-06T11:21:06.548Z,21.81
2023-09-06T11:22:06.466Z,21.78
2023-09-06T11:23:06.429Z,21.79
2023-09-06T11:24:06.354Z,21.78
2023-09-06T11:25:06.340Z,21.81
2023-09-06T11:26:06.252Z,21.71
2023-09-06T11:27:06.206Z,21.88
2023-09-06T11:28:06.173Z,21.90
2023-09-06T11:29:06.101Z,21.83
2023-09-06T11:30:06.053Z,21.85
2023-09-06T11:31:06.174Z,21.92
2023-09-06T11:32:05.959Z,21.92
2023-09-06T11:33:05.949Z,21.90
2023-09-06T11:34:05.957Z,21.98
2023-09-06T11:35:05.804Z,21.99
2023-09-06T11:36:05.751Z,21.98
2023-09-06T11:37:05.728Z,21.92
2023-09-06T11:38:05.647Z,21.98
2023-09-06T11:39:05.600Z,22.01
2023-09-06T11:40:05.564Z,21.99
2023-09-06T11:41:05.501Z,22.09
2023-09-06T11:42:05.452Z,22.10
2023-09-06T11:43:05.409Z,22.14
2023-09-06T11:44:05.375Z,22.09
2023-09-06T11:45:05.301Z,22.07
2023-09-06T11:46:05.646Z,22.06
2023-09-06T11:47:05.248Z,22.16
2023-09-06T11:48:05.196Z,22.20
2023-09-06T11:49:05.100Z,22.14
2023-09-06T11:50:05.056Z,22.22
2023-09-06T11:51:05.000Z,22.20
2023-09-06T11:52:04.964Z,22.20
2023-09-06T11:53:04.955Z,22.19
2023-09-06T11:54:04.855Z,22.22
2023-09-06T11:55:04.807Z,22.25
2023-09-06T11:56:04.750Z,22.17
2023-09-06T11:57:04.742Z,22.23
2023-09-06T11:58:04.671Z,22.22
2023-09-06T11:59:04.602Z,22.29
2023-09-06T12:00:04.562Z,22.27
2023-09-06T12:01:04.570Z,22.19
2023-09-06T12:02:04.468Z,22.22
2023-09-06T12:03:04.461Z,22.34
2023-09-06T12:04:04.391Z,22.28
2023-09-06T12:05:04.306Z,22.35
2023-09-06T12:06:04.252Z,22.37
2023-09-06T12:07:04.276Z,22.37
2023-09-06T12:08:04.153Z,22.44
2023-09-06T12:09:04.202Z,22.39
2023-09-06T12:10:04.067Z,22.43
2023-09-06T12:11:04.003Z,22.37
2023-09-06T12:12:03.954Z,22.37
2023-09-06T12:13:03.898Z,22.50
2023-09-06T12:14:03.852Z,22.47
2023-09-06T12:15:03.808Z,22.50
2023-09-06T12:16:03.866Z,22.49
2023-09-06T12:17:03.713Z,22.52
2023-09-06T12:18:03.729Z,22.60
2023-09-06T12:19:03.656Z,22.59
2023-09-06T12:20:03.550Z,22.65
2023-09-06T12:21:03.565Z,22.56
2023-09-06T12:22:03.458Z,22.60
2023-09-06T12:23:03.407Z,22.68
2023-09-06T12:24:03.453Z,22.59
2023-09-06T12:25:03.308Z,22.71
2023-09-06T12:26:03.263Z,22.71
2023-09-06T12:27:03.359Z,22.60
2023-09-06T12:28:03.162Z,22.68
2023-09-06T12:29:05.100Z,22.71
2023-09-06T12:30:03.081Z,22.64
2023-09-06T12:31:04.640Z,22.69
2023-09-06T12:32:02.983Z,22.75
2023-09-06T12:33:03.005Z,22.74
2023-09-06T12:34:02.862Z,22.74
2023-09-06T12:35:02.810Z,22.74
2023-09-06T12:36:02.762Z,22.67
2023-09-06T12:37:02.705Z,22.78
2023-09-06T12:38:02.659Z,22.69
2023-09-06T12:39:02.608Z,22.71
2023-09-06T12:40:02.593Z,22.74
2023-09-06T12:41:02.512Z,22.75
2023-09-06T12:42:02.489Z,22.75
2023-09-06T12:43:04.458Z,22.80
2023-09-06T12:44:02.362Z,22.83
2023-09-06T12:45:02.341Z,22.86
2023-09-06T12:46:02.304Z,22.80
2023-09-06T12:47:02.222Z,22.84
2023-09-06T12:48:02.326Z,22.87
2023-09-06T12:49:02.135Z,22.86
2023-09-06T12:50:02.069Z,22.83
2023-09-06T12:51:02.084Z,22.93
2023-09-06T12:52:01.969Z,22.92